createdAt,value
2017-09-23T00:00:29.181Z,1023.12
2017-09-23T00:01:38.178Z,1023.08
2017-09-23T00:02:47.023Z,1023.11
2017-09-23T00:03:55.868Z,1023.1
2017-09-23T00:05:04.712Z,1023.1
2017-09-23T00:06:13.559Z,1023.11
2017-09-23T00:07:22.701Z,1023.08
2017-09-23T00:08:31.544Z,1023.1
2017-09-23T00:09:40.725Z,1023.1
2017-09-23T00:10:49.570Z,1023.07
2017-09-23T00:11:58.416Z,1023.04
2017-09-23T00:13:07.511Z,1023.09
2017-09-23T00:14:16.355Z,1023.11
2017-09-23T00:15:25.199Z,1023.09
2017-09-23T00:16:34.044Z,1023.08
2017-09-23T00:17:42.892Z,1023.09
2017-09-23T00:18:51.739Z,1023.08
2017-09-23T00:20:00.586Z,1023.06
2017-09-23T00:21:09.433Z,1023.06
2017-09-23T00:22:18.277Z,1023.08
2017-09-23T00:23:27.123Z,1023.06
2017-09-23T00:24:35.966Z,1023.07
2017-09-23T00:25:44.810Z,1023.06
2017-09-23T00:26:53.658Z,1023.04
2017-09-23T00:28:02.502Z,1023.03
2017-09-23T00:29:11.347Z,1023.03
2017-09-23T00:30:20.343Z,1023.01
2017-09-23T00:31:29.189Z,1023.01
2017-09-23T00:32:38.031Z,1023.02
2017-09-23T00:33:46.876Z,1022.99
2017-09-23T00:34:55.721Z,1023
2017-09-23T00:36:04.616Z,1023.05
2017-09-23T00:37:13.461Z,1023.03
2017-09-23T00:38:22.306Z,1023.01
2017-09-23T00:39:31.150Z,1023.06
2017-09-23T00:40:39.996Z,1023.08
2017-09-23T00:41:49.172Z,1023.07
2017-09-23T00:42:58.016Z,1023.08
2017-09-23T00:44:06.864Z,1023.08
2017-09-23T00:45:16.045Z,1023.06
2017-09-23T00:46:24.890Z,1023.05
2017-09-23T00:47:33.932Z,1023.06
2017-09-23T00:48:42.778Z,1023.05
2017-09-23T00:49:51.623Z,1023.09
2017-09-23T00:51:00.465Z,1023.06
2017-09-23T00:52:09.311Z,1023.09
2017-09-23T00:53:18.452Z,1023.1
2017-09-23T00:54:27.297Z,1023.12
2017-09-23T00:55:36.470Z,1023.11
2017-09-23T00:56:45.682Z,1023.15
2017-09-23T00:57:54.526Z,1023.14
2017-09-23T00:59:03.620Z,1023.14
2017-09-23T01:00:12.463Z,1023.18
2017-09-23T01:01:21.305Z,1023.17
2017-09-23T01:02:30.149Z,1023.14
2017-09-23T01:03:38.996Z,1023.14
2017-09-23T01:04:48.093Z,1023.09
2017-09-23T01:05:56.937Z,1023.11
2017-09-23T01:07:05.782Z,1023.06
2017-09-23T01:08:14.625Z,1023.12
2017-09-23T01:09:23.469Z,1023.04
2017-09-23T01:10:32.414Z,1023.05
2017-09-23T01:11:41.256Z,1023.05
2017-09-23T01:12:50.103Z,1023.04
2017-09-23T01:13:58.956Z,1023.05
2017-09-23T01:15:07.800Z,1023.02
2017-09-23T01:16:16.942Z,1023.06
2017-09-23T01:17:25.785Z,1022.99
2017-09-23T01:18:34.961Z,1023.05
2017-09-23T01:19:43.806Z,1023.05
2017-09-23T01:20:52.977Z,1023.06
2017-09-23T01:22:01.972Z,1023.11
2017-09-23T01:23:10.820Z,1023.09
2017-09-23T01:24:19.992Z,1023.04
2017-09-23T01:25:28.837Z,1023.06
2017-09-23T01:26:37.682Z,1023.01
2017-09-23T01:27:47.006Z,1023.04
2017-09-23T01:28:55.847Z,1023.02
2017-09-23T01:30:04.691Z,1023.02
2017-09-23T01:31:13.532Z,1023
2017-09-23T01:32:22.378Z,1022.94
2017-09-23T01:33:31.223Z,1022.94
2017-09-23T01:34:40.064Z,1022.97
2017-09-23T01:35:48.910Z,1022.93
2017-09-23T01:36:57.753Z,1022.92
2017-09-23T01:38:06.627Z,1022.92
2017-09-23T01:39:15.587Z,1022.92
2017-09-23T01:40:24.434Z,1022.87
2017-09-23T01:41:33.282Z,1022.89
2017-09-23T01:42:42.131Z,1022.87
2017-09-23T01:43:50.978Z,1022.89
2017-09-23T01:44:59.873Z,1022.85
2017-09-23T01:46:08.716Z,1022.86
2017-09-23T01:47:17.557Z,1022.84
2017-09-23T01:48:26.403Z,1022.87
2017-09-23T01:49:35.576Z,1022.81
2017-09-23T01:50:44.620Z,1022.79
2017-09-23T01:51:53.461Z,1022.83
2017-09-23T01:53:02.303Z,1022.84
2017-09-23T01:54:11.473Z,1022.8
2017-09-23T01:55:20.318Z,1022.83
2017-09-23T01:56:29.359Z,1022.82
2017-09-23T01:57:38.202Z,1022.81
2017-09-23T01:58:47.045Z,1022.82
2017-09-23T01:59:55.886Z,1022.85
2017-09-23T02:01:04.730Z,1022.8
2017-09-23T02:02:13.722Z,1022.85
2017-09-23T02:03:22.576Z,1022.84
2017-09-23T02:04:31.407Z,1022.86
2017-09-23T02:05:40.251Z,1022.81
2017-09-23T02:06:49.097Z,1022.85
2017-09-23T02:07:57.991Z,1022.87
2017-09-23T02:09:06.836Z,1022.82
2017-09-23T02:10:15.682Z,1022.87
2017-09-23T02:11:24.858Z,1022.89
2017-09-23T02:12:33.702Z,1022.92
2017-09-23T02:13:42.697Z,1022.96
2017-09-23T02:14:51.539Z,1022.95
2017-09-23T02:16:00.381Z,1022.97
2017-09-23T02:17:09.226Z,1022.93
2017-09-23T02:18:18.071Z,1022.93
2017-09-23T02:19:27.115Z,1022.97
2017-09-23T02:20:35.958Z,1022.98
2017-09-23T02:21:44.801Z,1022.94
2017-09-23T02:22:53.976Z,1022.93
2017-09-23T02:24:02.822Z,1022.9
2017-09-23T02:25:11.823Z,1022.92
2017-09-23T02:26:20.662Z,1022.89
2017-09-23T02:27:29.867Z,1022.89
2017-09-23T02:28:38.710Z,1022.9
2017-09-23T02:29:47.555Z,1022.91
2017-09-23T02:30:56.500Z,1022.87
2017-09-23T02:32:05.345Z,1022.86
2017-09-23T02:33:14.189Z,1022.82
2017-09-23T02:34:23.037Z,1022.82
2017-09-23T02:35:32.213Z,1022.89
2017-09-23T02:36:41.103Z,1022.82
2017-09-23T02:37:49.950Z,1022.86
2017-09-23T02:38:58.792Z,1022.84
2017-09-23T02:40:07.636Z,1022.82
2017-09-23T02:41:16.481Z,1022.79
2017-09-23T02:42:25.768Z,1022.8
2017-09-23T02:43:34.608Z,1022.81
2017-09-23T02:44:43.457Z,1022.85
2017-09-23T02:45:52.301Z,1022.89
2017-09-23T02:47:01.143Z,1022.88
2017-09-23T02:48:09.987Z,1022.85
2017-09-23T02:49:18.831Z,1022.86
2017-09-23T02:50:27.673Z,1022.84
2017-09-23T02:51:36.521Z,1022.86
2017-09-23T02:52:45.361Z,1022.87
2017-09-23T02:53:54.457Z,1022.87
2017-09-23T02:55:03.302Z,1022.89
2017-09-23T02:56:12.146Z,1022.9
2017-09-23T02:57:20.989Z,1022.88
2017-09-23T02:58:29.833Z,1022.91
2017-09-23T02:59:38.779Z,1022.94
2017-09-23T03:00:47.622Z,1022.96
2017-09-23T03:01:56.467Z,1022.93
2017-09-23T03:03:05.312Z,1022.94
2017-09-23T03:04:14.156Z,1022.94
2017-09-23T03:05:23.050Z,1022.92
2017-09-23T03:06:31.893Z,1022.93
2017-09-23T03:07:41.076Z,1022.93
2017-09-23T03:08:49.920Z,1022.92
2017-09-23T03:09:58.764Z,1022.93
2017-09-23T03:11:07.659Z,1022.93
2017-09-23T03:12:16.505Z,1022.91
2017-09-23T03:13:25.350Z,1022.91
2017-09-23T03:14:34.201Z,1022.94
2017-09-23T03:15:43.043Z,1022.92
2017-09-23T03:16:52.086Z,1022.94
2017-09-23T03:18:00.933Z,1022.98
2017-09-23T03:19:09.776Z,1022.93
2017-09-23T03:20:18.622Z,1022.96
2017-09-23T03:21:27.468Z,1022.98
2017-09-23T03:22:36.361Z,1023.01
2017-09-23T03:23:45.204Z,1023.02
2017-09-23T03:24:54.047Z,1023.05
2017-09-23T03:26:02.891Z,1023.08
2017-09-23T03:27:11.737Z,1023.1
2017-09-23T03:28:20.883Z,1023.09
2017-09-23T03:29:29.729Z,1023.09
2017-09-23T03:30:38.572Z,1023.12
2017-09-23T03:31:47.421Z,1023.11
2017-09-23T03:32:56.264Z,1023.13
2017-09-23T03:34:05.260Z,1023.13
2017-09-23T03:35:14.103Z,1023.08
2017-09-23T03:36:22.948Z,1023.17
2017-09-23T03:37:31.793Z,1023.11
2017-09-23T03:38:40.636Z,1023.1
2017-09-23T03:39:49.581Z,1023.13
2017-09-23T03:40:58.424Z,1023.15
2017-09-23T03:42:07.596Z,1023.16
2017-09-23T03:43:16.440Z,1023.14
2017-09-23T03:44:25.285Z,1023.18
2017-09-23T03:45:34.428Z,1023.13
2017-09-23T03:46:43.274Z,1023.18
2017-09-23T03:47:52.117Z,1023.21
2017-09-23T03:49:00.960Z,1023.2
2017-09-23T03:50:09.804Z,1023.21
2017-09-23T03:51:18.649Z,1023.17
2017-09-23T03:52:27.496Z,1023.21
2017-09-23T03:53:36.335Z,1023.2
2017-09-23T03:54:45.179Z,1023.23
2017-09-23T03:55:54.024Z,1023.26
2017-09-23T03:57:03.019Z,1023.26
2017-09-23T03:58:11.863Z,1023.23
2017-09-23T03:59:20.709Z,1023.29
2017-09-23T04:00:29.554Z,1023.28
2017-09-23T04:01:38.398Z,1023.33
2017-09-23T04:02:47.243Z,1023.3
2017-09-23T04:03:56.426Z,1023.3
2017-09-23T04:05:05.268Z,1023.31
2017-09-23T04:06:14.114Z,1023.26
2017-09-23T04:07:22.960Z,1023.28
2017-09-23T04:08:32.100Z,1023.28
2017-09-23T04:09:40.946Z,1023.29
2017-09-23T04:10:49.790Z,1023.3
2017-09-23T04:11:58.635Z,1023.27
2017-09-23T04:13:07.475Z,1023.29
2017-09-23T04:14:16.472Z,1023.27
2017-09-23T04:15:25.315Z,1023.32
2017-09-23T04:16:34.160Z,1023.32
2017-09-23T04:17:43.004Z,1023.31
2017-09-23T04:18:51.847Z,1023.28
2017-09-23T04:20:00.944Z,1023.29
2017-09-23T04:21:09.789Z,1023.3
2017-09-23T04:22:18.964Z,1023.3
2017-09-23T04:23:27.807Z,1023.34
2017-09-23T04:24:36.652Z,1023.29
2017-09-23T04:25:45.746Z,1023.25
2017-09-23T04:26:54.591Z,1023.32
2017-09-23T04:28:03.439Z,1023.34
2017-09-23T04:29:12.283Z,1023.31
2017-09-23T04:30:21.427Z,1023.36
2017-09-23T04:31:30.371Z,1023.4
2017-09-23T04:32:39.215Z,1023.4
2017-09-23T04:33:48.390Z,1023.39
2017-09-23T04:34:57.574Z,1023.36
2017-09-23T04:36:06.419Z,1023.37
2017-09-23T04:37:15.268Z,1023.34
2017-09-23T04:38:24.113Z,1023.35
2017-09-23T04:39:32.957Z,1023.35
2017-09-23T04:40:41.804Z,1023.42
2017-09-23T04:41:50.984Z,1023.38
2017-09-23T04:42:59.876Z,1023.42
2017-09-23T04:44:08.729Z,1023.41
2017-09-23T04:45:17.575Z,1023.42
2017-09-23T04:46:26.416Z,1023.45
2017-09-23T04:47:35.260Z,1023.45
2017-09-23T04:48:44.251Z,1023.41
2017-09-23T04:49:53.095Z,1023.45
2017-09-23T04:51:01.941Z,1023.37
2017-09-23T04:52:10.782Z,1023.41
2017-09-23T04:53:19.626Z,1023.43
2017-09-23T04:54:28.469Z,1023.45
2017-09-23T04:55:37.317Z,1023.45
2017-09-23T04:56:46.491Z,1023.46
2017-09-23T04:57:55.334Z,1023.4
2017-09-23T04:59:04.176Z,1023.38
2017-09-23T05:00:13.221Z,1023.39
2017-09-23T05:01:22.064Z,1023.42
2017-09-23T05:02:30.905Z,1023.42
2017-09-23T05:03:39.745Z,1023.45
2017-09-23T05:04:48.586Z,1023.48
2017-09-23T05:05:57.580Z,1023.51
2017-09-23T05:07:06.426Z,1023.51
2017-09-23T05:08:15.604Z,1023.54
2017-09-23T05:09:24.455Z,1023.54
2017-09-23T05:10:33.282Z,1023.52
2017-09-23T05:11:42.510Z,1023.59
2017-09-23T05:12:51.352Z,1023.53
2017-09-23T05:14:00.192Z,1023.56
2017-09-23T05:15:09.034Z,1023.54
2017-09-23T05:16:18.212Z,1023.59
2017-09-23T05:17:27.152Z,1023.55
2017-09-23T05:18:35.995Z,1023.59
2017-09-23T05:19:44.840Z,1023.6
2017-09-23T05:20:53.681Z,1023.58
2017-09-23T05:22:02.524Z,1023.62
2017-09-23T05:23:11.417Z,1023.62
2017-09-23T05:24:20.259Z,1023.62
2017-09-23T05:25:29.102Z,1023.66
2017-09-23T05:26:37.944Z,1023.69
2017-09-23T05:27:46.786Z,1023.75
2017-09-23T05:28:55.628Z,1023.72
2017-09-23T05:30:04.476Z,1023.72
2017-09-23T05:31:13.649Z,1023.8
2017-09-23T05:32:22.489Z,1023.73
2017-09-23T05:33:31.331Z,1023.78
2017-09-23T05:34:40.270Z,1023.8
2017-09-23T05:35:49.112Z,1023.77
2017-09-23T05:36:57.953Z,1023.78
2017-09-23T05:38:07.130Z,1023.8
2017-09-23T05:39:15.969Z,1023.81
2017-09-23T05:40:24.961Z,1023.81
2017-09-23T05:41:33.807Z,1023.85
2017-09-23T05:42:42.646Z,1023.84
2017-09-23T05:43:51.820Z,1023.88
2017-09-23T05:45:00.661Z,1023.85
2017-09-23T05:46:09.504Z,1023.87
2017-09-23T05:47:18.345Z,1023.87
2017-09-23T05:48:27.188Z,1023.88
2017-09-23T05:49:36.033Z,1023.88
2017-09-23T05:50:44.877Z,1023.91
2017-09-23T05:51:53.871Z,1023.89
2017-09-23T05:53:02.717Z,1023.92
2017-09-23T05:54:11.564Z,1023.94
2017-09-23T05:55:20.414Z,1023.94
2017-09-23T05:56:29.257Z,1023.94
2017-09-23T05:57:38.203Z,1023.99
2017-09-23T05:58:47.045Z,1024.01
2017-09-23T05:59:55.890Z,1024.03
2017-09-23T06:01:04.733Z,1024.07
2017-09-23T06:02:13.576Z,1024.07
2017-09-23T06:03:22.570Z,1024.04
2017-09-23T06:04:31.415Z,1024.07
2017-09-23T06:05:40.259Z,1024.05
2017-09-23T06:06:49.104Z,1024.07
2017-09-23T06:07:57.947Z,1024.02
2017-09-23T06:09:06.938Z,1024.02
2017-09-23T06:10:15.787Z,1024.02
2017-09-23T06:11:24.624Z,1023.96
2017-09-23T06:12:33.469Z,1024.01
2017-09-23T06:13:42.309Z,1024.01
2017-09-23T06:14:51.253Z,1023.99
2017-09-23T06:16:00.433Z,1023.98
2017-09-23T06:17:09.279Z,1023.97
2017-09-23T06:18:18.118Z,1023.98
2017-09-23T06:19:26.959Z,1023.99
2017-09-23T06:20:36.101Z,1024.03
2017-09-23T06:21:44.943Z,1023.99
2017-09-23T06:22:53.784Z,1024.01
2017-09-23T06:24:02.626Z,1024.04
2017-09-23T06:25:11.468Z,1024
2017-09-23T06:26:20.609Z,1024
2017-09-23T06:27:29.783Z,1023.99
2017-09-23T06:28:38.625Z,1024.01
2017-09-23T06:29:47.470Z,1024.05
2017-09-23T06:30:56.643Z,1024.07
2017-09-23T06:32:05.532Z,1024.1
2017-09-23T06:33:14.376Z,1024.11
2017-09-23T06:34:23.219Z,1024.12
2017-09-23T06:35:32.063Z,1024.16
2017-09-23T06:36:41.240Z,1024.16
2017-09-23T06:37:50.183Z,1024.16
2017-09-23T06:38:59.023Z,1024.15
2017-09-23T06:40:07.866Z,1024.18
2017-09-23T06:41:16.708Z,1024.17
2017-09-23T06:42:25.551Z,1024.19
2017-09-23T06:43:34.494Z,1024.2
2017-09-23T06:44:43.337Z,1024.18
2017-09-23T06:45:52.178Z,1024.25
2017-09-23T06:47:01.021Z,1024.26
2017-09-23T06:48:09.863Z,1024.24
2017-09-23T06:49:19.253Z,1024.25
2017-09-23T06:50:28.096Z,1024.28
2017-09-23T06:51:36.938Z,1024.28
2017-09-23T06:52:45.779Z,1024.3
2017-09-23T06:53:54.956Z,1024.25
2017-09-23T06:55:03.998Z,1024.3
2017-09-23T06:56:12.841Z,1024.27
2017-09-23T06:57:22.021Z,1024.27
2017-09-23T06:58:31.189Z,1024.23
2017-09-23T06:59:40.032Z,1024.28
2017-09-23T07:00:48.929Z,1024.31
2017-09-23T07:01:57.770Z,1024.31
2017-09-23T07:03:06.949Z,1024.33
2017-09-23T07:04:15.793Z,1024.35
2017-09-23T07:05:24.637Z,1024.38
2017-09-23T07:06:33.531Z,1024.4
2017-09-23T07:07:42.376Z,1024.41
2017-09-23T07:08:51.225Z,1024.44
2017-09-23T07:10:00.071Z,1024.39
2017-09-23T07:11:08.917Z,1024.49
2017-09-23T07:12:17.813Z,1024.48
2017-09-23T07:13:26.659Z,1024.49
2017-09-23T07:14:35.502Z,1024.51
2017-09-23T07:15:44.347Z,1024.51
2017-09-23T07:16:53.191Z,1024.53
2017-09-23T07:18:02.334Z,1024.54
2017-09-23T07:19:11.178Z,1024.57
2017-09-23T07:20:20.023Z,1024.54
2017-09-23T07:21:28.866Z,1024.54
2017-09-23T07:22:37.709Z,1024.54
2017-09-23T07:23:46.705Z,1024.53
2017-09-23T07:24:55.551Z,1024.54
2017-09-23T07:26:04.396Z,1024.52
2017-09-23T07:27:13.240Z,1024.5
2017-09-23T07:28:22.083Z,1024.55
2017-09-23T07:29:31.022Z,1024.55
2017-09-23T07:30:39.865Z,1024.55
2017-09-23T07:31:48.709Z,1024.54
2017-09-23T07:32:57.885Z,1024.6
2017-09-23T07:34:06.728Z,1024.62
2017-09-23T07:35:15.720Z,1024.63
2017-09-23T07:36:24.564Z,1024.59
2017-09-23T07:37:33.406Z,1024.61
2017-09-23T07:38:42.248Z,1024.6
2017-09-23T07:39:51.089Z,1024.63
2017-09-23T07:40:59.984Z,1024.65
2017-09-23T07:42:08.825Z,1024.65
2017-09-23T07:43:18.014Z,1024.64
2017-09-23T07:44:26.859Z,1024.62
2017-09-23T07:45:35.698Z,1024.68
2017-09-23T07:46:44.875Z,1024.69
2017-09-23T07:47:53.720Z,1024.68
2017-09-23T07:49:02.565Z,1024.7
2017-09-23T07:50:11.407Z,1024.69
2017-09-23T07:51:20.250Z,1024.71
2017-09-23T07:52:29.203Z,1024.75
2017-09-23T07:53:38.380Z,1024.7
2017-09-23T07:54:47.221Z,1024.7
2017-09-23T07:55:56.064Z,1024.67
2017-09-23T07:57:04.909Z,1024.69
2017-09-23T07:58:13.804Z,1024.71
2017-09-23T07:59:22.979Z,1024.77
2017-09-23T08:00:31.823Z,1024.77
2017-09-23T08:01:40.667Z,1024.78
2017-09-23T08:02:49.510Z,1024.75
2017-09-23T08:03:59.182Z,1024.8
2017-09-23T08:05:08.027Z,1024.84
2017-09-23T08:06:16.872Z,1024.81
2017-09-23T08:07:25.719Z,1024.83
2017-09-23T08:08:34.562Z,1024.88
2017-09-23T08:09:43.604Z,1024.86
2017-09-23T08:10:52.451Z,1024.88
2017-09-23T08:12:01.292Z,1024.88
2017-09-23T08:13:10.137Z,1024.94
2017-09-23T08:14:18.978Z,1024.98
2017-09-23T08:15:28.121Z,1024.99
2017-09-23T08:16:36.967Z,1025.01
2017-09-23T08:17:45.810Z,1025.01
2017-09-23T08:18:54.659Z,1025.01
2017-09-23T08:20:03.831Z,1025.02
2017-09-23T08:21:12.725Z,1025.04
2017-09-23T08:22:21.570Z,1025.05
2017-09-23T08:23:30.414Z,1025.04
2017-09-23T08:24:39.259Z,1025.11
2017-09-23T08:25:48.106Z,1025.09
2017-09-23T08:26:56.955Z,1025.12
2017-09-23T08:28:05.794Z,1025.08
2017-09-23T08:29:14.640Z,1025.08
2017-09-23T08:30:23.483Z,1025.07
2017-09-23T08:31:32.337Z,1025.06
2017-09-23T08:32:41.225Z,1025.09
2017-09-23T08:33:50.406Z,1025.1
2017-09-23T08:34:59.250Z,1025.11
2017-09-23T08:36:08.093Z,1025.14
2017-09-23T08:37:16.940Z,1025.14
2017-09-23T08:38:26.171Z,1025.14
2017-09-23T08:39:35.017Z,1025.15
2017-09-23T08:40:43.862Z,1025.13
2017-09-23T08:41:52.707Z,1025.13
2017-09-23T08:43:01.881Z,1025.14
2017-09-23T08:44:11.364Z,1025.11
2017-09-23T08:45:20.210Z,1025.06
2017-09-23T08:46:29.053Z,1025.06
2017-09-23T08:47:37.900Z,1025.03
2017-09-23T08:48:46.742Z,1025.05
2017-09-23T08:49:55.739Z,1025.13
2017-09-23T08:51:04.584Z,1025.06
2017-09-23T08:52:13.430Z,1025.08
2017-09-23T08:53:22.275Z,1025.08
2017-09-23T08:54:31.124Z,1025.04
2017-09-23T08:55:40.020Z,1025.07
2017-09-23T08:56:48.865Z,1025.08
2017-09-23T08:57:57.712Z,1025.08
2017-09-23T08:59:06.556Z,1025.04
2017-09-23T09:00:15.741Z,1025.06
2017-09-23T09:01:24.638Z,1025.07
2017-09-23T09:02:33.484Z,1025.12
2017-09-23T09:03:42.331Z,1025.08
2017-09-23T09:04:51.177Z,1025.11
2017-09-23T09:06:00.355Z,1025.13
2017-09-23T09:07:09.201Z,1025.1
2017-09-23T09:08:18.047Z,1025.1
2017-09-23T09:09:26.894Z,1025.09
2017-09-23T09:10:35.740Z,1025.08
2017-09-23T09:11:44.586Z,1025.05
2017-09-23T09:12:53.632Z,1025.05
2017-09-23T09:14:02.477Z,1025.01
2017-09-23T09:15:11.323Z,1025.01
2017-09-23T09:16:20.167Z,1024.99
2017-09-23T09:17:29.015Z,1024.97
2017-09-23T09:18:37.911Z,1024.96
2017-09-23T09:19:46.756Z,1024.96
2017-09-23T09:20:55.657Z,1024.97
2017-09-23T09:22:04.506Z,1025
2017-09-23T09:23:13.361Z,1024.98
2017-09-23T09:24:22.689Z,1025.01
2017-09-23T09:25:31.534Z,1024.96
2017-09-23T09:26:40.380Z,1025.01
2017-09-23T09:27:49.230Z,1025.01
2017-09-23T09:28:58.073Z,1025
2017-09-23T09:30:07.068Z,1025.01
2017-09-23T09:31:15.914Z,1024.97
2017-09-23T09:32:24.757Z,1024.98
2017-09-23T09:33:33.602Z,1024.99
2017-09-23T09:34:42.448Z,1024.96
2017-09-23T09:35:51.593Z,1024.94
2017-09-23T09:37:00.439Z,1024.88
2017-09-23T09:38:09.621Z,1024.92
2017-09-23T09:39:18.467Z,1024.9
2017-09-23T09:40:27.646Z,1024.95
2017-09-23T09:41:36.595Z,1024.93
2017-09-23T09:42:45.444Z,1024.95
2017-09-23T09:43:54.292Z,1024.97
2017-09-23T09:45:03.140Z,1024.96
2017-09-23T09:46:11.986Z,1024.93
2017-09-23T09:47:21.036Z,1025
2017-09-23T09:48:29.885Z,1024.96
2017-09-23T09:49:38.755Z,1025
2017-09-23T09:50:47.581Z,1024.96
2017-09-23T09:51:56.429Z,1024.96
2017-09-23T09:53:05.426Z,1024.99
2017-09-23T09:54:14.274Z,1024.92
2017-09-23T09:55:23.120Z,1024.96
2017-09-23T09:56:31.968Z,1024.96
2017-09-23T09:57:40.816Z,1024.97
2017-09-23T09:58:49.813Z,1024.96
2017-09-23T09:59:58.661Z,1025
2017-09-23T10:01:07.509Z,1024.97
2017-09-23T10:02:16.359Z,1024.98
2017-09-23T10:03:25.208Z,1024.99
2017-09-23T10:04:34.111Z,1024.98
2017-09-23T10:05:42.960Z,1024.96
2017-09-23T10:06:52.143Z,1024.96
2017-09-23T10:08:00.991Z,1024.92
2017-09-23T10:09:09.838Z,1024.94
2017-09-23T10:10:18.985Z,1024.96
2017-09-23T10:11:27.840Z,1024.9
2017-09-23T10:12:36.689Z,1024.92
2017-09-23T10:13:45.538Z,1024.89
2017-09-23T10:14:54.385Z,1024.9
2017-09-23T10:16:03.282Z,1024.89
2017-09-23T10:17:12.461Z,1024.86
2017-09-23T10:18:21.639Z,1024.88
2017-09-23T10:19:30.828Z,1024.91
2017-09-23T10:20:39.674Z,1024.89
2017-09-23T10:21:48.672Z,1024.89
2017-09-23T10:22:57.853Z,1024.84
2017-09-23T10:24:06.702Z,1024.87
2017-09-23T10:25:15.549Z,1024.85
2017-09-23T10:26:24.401Z,1024.86
2017-09-23T10:27:33.397Z,1024.83
2017-09-23T10:28:42.247Z,1024.85
2017-09-23T10:29:51.463Z,1024.79
2017-09-23T10:31:00.320Z,1024.81
2017-09-23T10:32:09.167Z,1024.83
2017-09-23T10:33:18.165Z,1024.79
2017-09-23T10:34:27.013Z,1024.75
2017-09-23T10:35:35.860Z,1024.78
2017-09-23T10:36:45.042Z,1024.76
2017-09-23T10:37:53.889Z,1024.77
2017-09-23T10:39:03.036Z,1024.69
2017-09-23T10:40:12.217Z,1024.73
2017-09-23T10:41:21.068Z,1024.74
2017-09-23T10:42:29.910Z,1024.72
2017-09-23T10:43:38.758Z,1024.67
2017-09-23T10:44:47.753Z,1024.68
2017-09-23T10:45:56.601Z,1024.69
2017-09-23T10:47:05.448Z,1024.7
2017-09-23T10:48:14.294Z,1024.66
2017-09-23T10:49:23.146Z,1024.63
2017-09-23T10:50:32.046Z,1024.63
2017-09-23T10:51:40.895Z,1024.64
2017-09-23T10:52:49.744Z,1024.62
2017-09-23T10:53:58.590Z,1024.63
2017-09-23T10:55:07.442Z,1024.61
2017-09-23T10:56:16.441Z,1024.64
2017-09-23T10:57:25.287Z,1024.63
2017-09-23T10:58:34.133Z,1024.61
2017-09-23T10:59:42.981Z,1024.62
2017-09-23T11:00:51.833Z,1024.63
2017-09-23T11:02:00.833Z,1024.63
2017-09-23T11:03:10.016Z,1024.64
2017-09-23T11:04:18.864Z,1024.63
2017-09-23T11:05:27.710Z,1024.6
2017-09-23T11:06:36.561Z,1024.64
2017-09-23T11:07:45.609Z,1024.62
2017-09-23T11:08:54.455Z,1024.59
2017-09-23T11:10:03.302Z,1024.58
2017-09-23T11:11:12.152Z,1024.58
2017-09-23T11:12:21.004Z,1024.61
2017-09-23T11:13:29.901Z,1024.57
2017-09-23T11:14:38.749Z,1024.55
2017-09-23T11:15:47.598Z,1024.52
2017-09-23T11:16:56.445Z,1024.54
2017-09-23T11:18:05.297Z,1024.51
2017-09-23T11:19:14.147Z,1024.53
2017-09-23T11:20:22.996Z,1024.59
2017-09-23T11:21:31.843Z,1024.57
2017-09-23T11:22:41.025Z,1024.56
2017-09-23T11:23:50.208Z,1024.56
2017-09-23T11:24:59.355Z,1024.52
2017-09-23T11:26:08.203Z,1024.52
2017-09-23T11:27:17.054Z,1024.48
2017-09-23T11:28:25.906Z,1024.48
2017-09-23T11:29:34.756Z,1024.49
2017-09-23T11:30:43.657Z,1024.47
2017-09-23T11:31:52.506Z,1024.45
2017-09-23T11:33:01.686Z,1024.44
2017-09-23T11:34:10.536Z,1024.49
2017-09-23T11:35:19.383Z,1024.43
2017-09-23T11:36:28.337Z,1024.45
2017-09-23T11:37:37.551Z,1024.41
2017-09-23T11:38:46.366Z,1024.47
2017-09-23T11:39:55.216Z,1024.44
2017-09-23T11:41:04.063Z,1024.44
2017-09-23T11:42:13.063Z,1024.38
2017-09-23T11:43:21.915Z,1024.39
2017-09-23T11:44:31.096Z,1024.4
2017-09-23T11:45:39.945Z,1024.33
2017-09-23T11:46:48.793Z,1024.32
2017-09-23T11:47:57.741Z,1024.37
2017-09-23T11:49:06.591Z,1024.37
2017-09-23T11:50:15.440Z,1024.38
2017-09-23T11:51:24.290Z,1024.36
2017-09-23T11:52:33.140Z,1024.4
2017-09-23T11:53:42.141Z,1024.42
2017-09-23T11:54:50.992Z,1024.37
2017-09-23T11:55:59.841Z,1024.36
2017-09-23T11:57:08.694Z,1024.4
2017-09-23T11:58:17.545Z,1024.35
2017-09-23T11:59:26.498Z,1024.4
2017-09-23T12:00:35.352Z,1024.35
2017-09-23T12:01:44.203Z,1024.37
2017-09-23T12:02:53.055Z,1024.39
2017-09-23T12:04:01.906Z,1024.37
2017-09-23T12:05:10.805Z,1024.36
2017-09-23T12:06:19.655Z,1024.35
2017-09-23T12:07:28.505Z,1024.4
2017-09-23T12:08:37.353Z,1024.36
2017-09-23T12:09:46.205Z,1024.38
2017-09-23T12:10:55.058Z,1024.39
2017-09-23T12:12:03.908Z,1024.43
2017-09-23T12:13:12.760Z,1024.39
2017-09-23T12:14:21.609Z,1024.39
2017-09-23T12:15:30.459Z,1024.37
2017-09-23T12:16:39.464Z,1024.36
2017-09-23T12:17:48.311Z,1024.35
2017-09-23T12:18:57.162Z,1024.37
2017-09-23T12:20:06.348Z,1024.4
2017-09-23T12:21:15.198Z,1024.4
2017-09-23T12:22:24.200Z,1024.39
2017-09-23T12:23:33.050Z,1024.38
2017-09-23T12:24:41.901Z,1024.36
2017-09-23T12:25:50.753Z,1024.37
2017-09-23T12:26:59.603Z,1024.39
2017-09-23T12:28:08.604Z,1024.38
2017-09-23T12:29:17.453Z,1024.39
2017-09-23T12:30:26.306Z,1024.4
2017-09-23T12:31:35.157Z,1024.4
2017-09-23T12:32:44.007Z,1024.4
2017-09-23T12:33:52.958Z,1024.43
2017-09-23T12:35:02.141Z,1024.42
2017-09-23T12:36:10.992Z,1024.44
2017-09-23T12:37:19.842Z,1024.42
2017-09-23T12:38:28.692Z,1024.45
2017-09-23T12:39:37.974Z,1024.43
2017-09-23T12:40:46.822Z,1024.45
2017-09-23T12:41:55.672Z,1024.43
2017-09-23T12:43:04.522Z,1024.41
2017-09-23T12:44:13.374Z,1024.43
2017-09-23T12:45:22.224Z,1024.45
2017-09-23T12:46:31.071Z,1024.44
2017-09-23T12:47:39.921Z,1024.44
2017-09-23T12:48:48.768Z,1024.4
2017-09-23T12:49:57.628Z,1024.4
2017-09-23T12:51:06.619Z,1024.42
2017-09-23T12:52:15.469Z,1024.39
2017-09-23T12:53:24.318Z,1024.44
2017-09-23T12:54:33.167Z,1024.42
2017-09-23T12:55:42.016Z,1024.41
2017-09-23T12:56:51.013Z,1024.42
2017-09-23T12:57:59.862Z,1024.42
2017-09-23T12:59:08.712Z,1024.42
2017-09-23T13:00:17.561Z,1024.45
2017-09-23T13:01:26.408Z,1024.38
2017-09-23T13:02:35.557Z,1024.41
2017-09-23T13:03:44.403Z,1024.39
2017-09-23T13:04:53.252Z,1024.36
2017-09-23T13:06:02.100Z,1024.38
2017-09-23T13:07:10.950Z,1024.38
2017-09-23T13:08:19.899Z,1024.38
2017-09-23T13:09:28.744Z,1024.34
2017-09-23T13:10:37.591Z,1024.35
2017-09-23T13:11:46.439Z,1024.33
2017-09-23T13:12:55.287Z,1024.32
2017-09-23T13:14:04.238Z,1024.28
2017-09-23T13:15:13.086Z,1024.3
2017-09-23T13:16:21.933Z,1024.31
2017-09-23T13:17:30.778Z,1024.29
2017-09-23T13:18:39.625Z,1024.28
2017-09-23T13:19:48.625Z,1024.3
2017-09-23T13:20:57.470Z,1024.29
2017-09-23T13:22:06.317Z,1024.32
2017-09-23T13:23:15.169Z,1024.29
2017-09-23T13:24:24.017Z,1024.29
2017-09-23T13:25:33.021Z,1024.22
2017-09-23T13:26:42.199Z,1024.21
2017-09-23T13:27:51.045Z,1024.24
2017-09-23T13:28:59.892Z,1024.26
2017-09-23T13:30:08.742Z,1024.25
2017-09-23T13:31:17.640Z,1024.15
2017-09-23T13:32:26.490Z,1024.16
2017-09-23T13:33:35.337Z,1024.19
2017-09-23T13:34:44.187Z,1024.17
2017-09-23T13:35:53.032Z,1024.12
2017-09-23T13:37:02.130Z,1024.11
2017-09-23T13:38:10.981Z,1024.11
2017-09-23T13:39:19.830Z,1024.11
2017-09-23T13:40:28.678Z,1024.13
2017-09-23T13:41:37.526Z,1024.1
2017-09-23T13:42:46.522Z,1024.1
2017-09-23T13:43:55.371Z,1024.09
2017-09-23T13:45:04.219Z,1024.09
2017-09-23T13:46:13.070Z,1024.11
2017-09-23T13:47:21.918Z,1024.08
2017-09-23T13:48:30.766Z,1024.09
2017-09-23T13:49:39.613Z,1024.09
2017-09-23T13:50:48.459Z,1024.09
2017-09-23T13:51:57.307Z,1024.09
2017-09-23T13:53:06.490Z,1024.1
2017-09-23T13:54:15.487Z,1024.1
2017-09-23T13:55:24.334Z,1024.09
2017-09-23T13:56:33.182Z,1024.12